sensor_id;sensor_type;location;lat;lon;timestamp;P1;durP1;ratioP1;P2;durP2;ratioP2
6095;SDS011;25081;42.698;23.298;2022-12-18T00:01:05;12.18;;;9.03;;
6095;SDS011;25081;42.698;23.298;2022-12-18T00:03:15;9.35;;;7.85;;
6095;SDS011;25081;42.698;23.298;2022-12-18T00:05:25;11.35;;;8.90;;
6095;SDS011;25081;42.698;23.298;2022-12-18T00:07:36;10.85;;;8.45;;
6095;SDS011;25081;42.698;23.298;2022-12-18T00:09:46;10.63;;;8.20;;
6095;SDS011;25081;42.698;23.298;2022-12-18T00:11:57;9.05;;;7.50;;
6095;SDS011;25081;42.698;23.298;2022-12-18T00:14:08;10.55;;;7.90;;
6095;SDS011;25081;42.698;23.298;2022-12-18T00:16:19;10.65;;;8.15;;
6095;SDS011;25081;42.698;23.298;2022-12-18T00:18:29;12.23;;;8.90;;
6095;SDS011;25081;42.698;23.298;2022-12-18T00:20:39;12.58;;;8.80;;
6095;SDS011;25081;42.698;23.298;2022-12-18T00:22:50;10.43;;;8.50;;
6095;SDS011;25081;42.698;23.298;2022-12-18T00:25:00;12.93;;;9.00;;
6095;SDS011;25081;42.698;23.298;2022-12-18T00:27:11;11.95;;;9.30;;
6095;SDS011;25081;42.698;23.298;2022-12-18T00:29:21;12.30;;;8.80;;
6095;SDS011;25081;42.698;23.298;2022-12-18T00:31:32;14.30;;;10.58;;
6095;SDS011;25081;42.698;23.298;2022-12-18T00:33:42;10.10;;;8.25;;
6095;SDS011;25081;42.698;23.298;2022-12-18T00:35:52;11.70;;;8.78;;
6095;SDS011;25081;42.698;23.298;2022-12-18T00:38:03;12.03;;;8.53;;
6095;SDS011;25081;42.698;23.298;2022-12-18T00:40:13;13.30;;;9.70;;
6095;SDS011;25081;42.698;23.298;2022-12-18T00:42:24;11.40;;;9.40;;
6095;SDS011;25081;42.698;23.298;2022-12-18T00:44:52;11.88;;;8.33;;
6095;SDS011;25081;42.698;23.298;2022-12-18T00:47:02;12.35;;;8.95;;
6095;SDS011;25081;42.698;23.298;2022-12-18T00:49:13;12.78;;;7.85;;
6095;SDS011;25081;42.698;23.298;2022-12-18T00:51:24;11.70;;;8.05;;
6095;SDS011;25081;42.698;23.298;2022-12-18T00:53:34;12.50;;;8.80;;
6095;SDS011;25081;42.698;23.298;2022-12-18T00:55:44;11.22;;;7.95;;
6095;SDS011;25081;42.698;23.298;2022-12-18T00:57:55;12.82;;;8.93;;
6095;SDS011;25081;42.698;23.298;2022-12-18T01:00:07;11.35;;;8.20;;
6095;SDS011;25081;42.698;23.298;2022-12-18T01:02:17;15.85;;;8.70;;
6095;SDS011;25081;42.698;23.298;2022-12-18T01:04:28;11.30;;;8.40;;
6095;SDS011;25081;42.698;23.298;2022-12-18T01:06:40;11.88;;;8.90;;
6095;SDS011;25081;42.698;23.298;2022-12-18T01:08:51;12.93;;;9.13;;
6095;SDS011;25081;42.698;23.298;2022-12-18T01:11:06;12.25;;;8.40;;
6095;SDS011;25081;42.698;23.298;2022-12-18T01:13:16;11.57;;;8.50;;
6095;SDS011;25081;42.698;23.298;2022-12-18T01:15:27;12.68;;;9.63;;
6095;SDS011;25081;42.698;23.298;2022-12-18T01:17:37;11.43;;;8.75;;
6095;SDS011;25081;42.698;23.298;2022-12-18T01:19:47;14.55;;;10.20;;
6095;SDS011;25081;42.698;23.298;2022-12-18T01:21:58;15.88;;;9.83;;
6095;SDS011;25081;42.698;23.298;2022-12-18T01:24:09;18.10;;;10.93;;
6095;SDS011;25081;42.698;23.298;2022-12-18T01:26:20;20.30;;;11.55;;
6095;SDS011;25081;42.698;23.298;2022-12-18T01:28:30;14.55;;;10.63;;
6095;SDS011;25081;42.698;23.298;2022-12-18T01:30:40;12.80;;;9.90;;
6095;SDS011;25081;42.698;23.298;2022-12-18T01:32:51;15.70;;;11.65;;
6095;SDS011;25081;42.698;23.298;2022-12-18T01:35:01;17.55;;;11.20;;
6095;SDS011;25081;42.698;23.298;2022-12-18T01:37:12;16.07;;;11.10;;
6095;SDS011;25081;42.698;23.298;2022-12-18T01:39:23;15.05;;;11.00;;
6095;SDS011;25081;42.698;23.298;2022-12-18T01:41:33;15.78;;;10.00;;
6095;SDS011;25081;42.698;23.298;2022-12-18T01:46:49;14.58;;;9.95;;
6095;SDS011;25081;42.698;23.298;2022-12-18T01:49:00;16.15;;;10.45;;
6095;SDS011;25081;42.698;23.298;2022-12-18T01:51:10;15.13;;;9.10;;
6095;SDS011;25081;42.698;23.298;2022-12-18T01:53:21;14.70;;;10.10;;
6095;SDS011;25081;42.698;23.298;2022-12-18T01:55:32;12.90;;;9.35;;
6095;SDS011;25081;42.698;23.298;2022-12-18T01:57:42;14.58;;;10.78;;
6095;SDS011;25081;42.698;23.298;2022-12-18T01:59:53;13.15;;;9.28;;
6095;SDS011;25081;42.698;23.298;2022-12-18T02:02:03;17.30;;;10.55;;
6095;SDS011;25081;42.698;23.298;2022-12-18T02:04:21;13.78;;;9.15;;
6095;SDS011;25081;42.698;23.298;2022-12-18T02:06:32;13.00;;;9.15;;
6095;SDS011;25081;42.698;23.298;2022-12-18T02:08:43;13.75;;;9.60;;
6095;SDS011;25081;42.698;23.298;2022-12-18T02:10:56;11.25;;;7.78;;
6095;SDS011;25081;42.698;23.298;2022-12-18T02:13:09;10.05;;;7.28;;
6095;SDS011;25081;42.698;23.298;2022-12-18T02:15:19;10.45;;;8.00;;
6095;SDS011;25081;42.698;23.298;2022-12-18T02:17:30;12.68;;;8.50;;
6095;SDS011;25081;42.698;23.298;2022-12-18T02:19:46;12.03;;;8.78;;
6095;SDS011;25081;42.698;23.298;2022-12-18T02:21:58;8.38;;;5.53;;
6095;SDS011;25081;42.698;23.298;2022-12-18T02:24:12;13.80;;;8.85;;
6095;SDS011;25081;42.698;23.298;2022-12-18T02:26:25;11.28;;;8.45;;
6095;SDS011;25081;42.698;23.298;2022-12-18T02:28:37;8.88;;;7.78;;
6095;SDS011;25081;42.698;23.298;2022-12-18T02:30:46;10.30;;;7.53;;
6095;SDS011;25081;42.698;23.298;2022-12-18T02:32:57;15.18;;;9.28;;
6095;SDS011;25081;42.698;23.298;2022-12-18T02:35:09;13.53;;;8.80;;
6095;SDS011;25081;42.698;23.298;2022-12-18T02:37:18;12.70;;;9.03;;
6095;SDS011;25081;42.698;23.298;2022-12-18T02:39:29;13.03;;;7.05;;
6095;SDS011;25081;42.698;23.298;2022-12-18T02:41:39;15.72;;;10.10;;
6095;SDS011;25081;42.698;23.298;2022-12-18T02:43:52;11.63;;;9.20;;
6095;SDS011;25081;42.698;23.298;2022-12-18T02:46:23;12.18;;;7.87;;
6095;SDS011;25081;42.698;23.298;2022-12-18T02:48:41;10.50;;;5.95;;
6095;SDS011;25081;42.698;23.298;2022-12-18T02:50:53;14.00;;;10.65;;
6095;SDS011;25081;42.698;23.298;2022-12-18T02:53:06;12.58;;;10.00;;
6095;SDS011;25081;42.698;23.298;2022-12-18T02:55:19;12.23;;;9.60;;
6095;SDS011;25081;42.698;23.298;2022-12-18T02:57:32;14.55;;;9.80;;
6095;SDS011;25081;42.698;23.298;2022-12-18T02:59:45;14.80;;;9.90;;
6095;SDS011;25081;42.698;23.298;2022-12-18T03:01:57;14.50;;;9.68;;
6095;SDS011;25081;42.698;23.298;2022-12-18T03:04:07;14.07;;;10.53;;
6095;SDS011;25081;42.698;23.298;2022-12-18T03:06:18;14.25;;;9.80;;
6095;SDS011;25081;42.698;23.298;2022-12-18T03:08:29;11.93;;;9.28;;
6095;SDS011;25081;42.698;23.298;2022-12-18T03:10:39;14.85;;;9.68;;
6095;SDS011;25081;42.698;23.298;2022-12-18T03:12:51;9.78;;;7.30;;
6095;SDS011;25081;42.698;23.298;2022-12-18T03:15:02;13.50;;;9.63;;
6095;SDS011;25081;42.698;23.298;2022-12-18T03:17:13;12.18;;;8.60;;
6095;SDS011;25081;42.698;23.298;2022-12-18T03:19:24;12.07;;;7.75;;
6095;SDS011;25081;42.698;23.298;2022-12-18T03:21:33;16.77;;;9.90;;
6095;SDS011;25081;42.698;23.298;2022-12-18T03:23:44;14.98;;;10.15;;
6095;SDS011;25081;42.698;23.298;2022-12-18T03:25:56;16.07;;;8.83;;
6095;SDS011;25081;42.698;23.298;2022-12-18T03:28:05;15.13;;;9.55;;
6095;SDS011;25081;42.698;23.298;2022-12-18T03:30:16;14.68;;;10.35;;
6095;SDS011;25081;42.698;23.298;2022-12-18T03:32:27;11.65;;;8.33;;
6095;SDS011;25081;42.698;23.298;2022-12-18T03:34:37;14.03;;;9.70;;
6095;SDS011;25081;42.698;23.298;2022-12-18T03:36:47;14.13;;;9.10;;
6095;SDS011;25081;42.698;23.298;2022-12-18T03:38:59;12.40;;;8.85;;
6095;SDS011;25081;42.698;23.298;2022-12-18T03:41:12;9.30;;;7.45;;
6095;SDS011;25081;42.698;23.298;2022-12-18T03:43:25;10.98;;;8.40;;
6095;SDS011;25081;42.698;23.298;2022-12-18T03:45:37;14.73;;;7.90;;
6095;SDS011;25081;42.698;23.298;2022-12-18T03:47:49;12.90;;;9.35;;
6095;SDS011;25081;42.698;23.298;2022-12-18T03:49:59;14.10;;;10.05;;
6095;SDS011;25081;42.698;23.298;2022-12-18T03:52:09;12.85;;;8.50;;
6095;SDS011;25081;42.698;23.298;2022-12-18T03:54:19;13.58;;;9.35;;
6095;SDS011;25081;42.698;23.298;2022-12-18T03:56:30;12.00;;;7.95;;
6095;SDS011;25081;42.698;23.298;2022-12-18T03:58:40;13.95;;;9.30;;
6095;SDS011;25081;42.698;23.298;2022-12-18T04:00:51;14.35;;;9.68;;
6095;SDS011;25081;42.698;23.298;2022-12-18T04:03:01;12.43;;;9.15;;
6095;SDS011;25081;42.698;23.298;2022-12-18T04:05:12;15.45;;;8.70;;
6095;SDS011;25081;42.698;23.298;2022-12-18T04:07:22;13.32;;;9.90;;
6095;SDS011;25081;42.698;23.298;2022-12-18T04:09:33;15.03;;;9.80;;
6095;SDS011;25081;42.698;23.298;2022-12-18T04:11:43;17.20;;;9.80;;
6095;SDS011;25081;42.698;23.298;2022-12-18T04:13:56;15.48;;;9.85;;
6095;SDS011;25081;42.698;23.298;2022-12-18T04:16:07;16.23;;;10.75;;
6095;SDS011;25081;42.698;23.298;2022-12-18T04:18:18;14.87;;;10.05;;
6095;SDS011;25081;42.698;23.298;2022-12-18T04:20:28;15.63;;;10.65;;
6095;SDS011;25081;42.698;23.298;2022-12-18T04:22:39;15.83;;;11.53;;
6095;SDS011;25081;42.698;23.298;2022-12-18T04:24:49;17.77;;;11.10;;
6095;SDS011;25081;42.698;23.298;2022-12-18T04:26:59;16.90;;;10.80;;
6095;SDS011;25081;42.698;23.298;2022-12-18T04:29:10;13.85;;;9.80;;
6095;SDS011;25081;42.698;23.298;2022-12-18T04:31:20;13.43;;;9.23;;
6095;SDS011;25081;42.698;23.298;2022-12-18T04:33:31;17.90;;;12.07;;
6095;SDS011;25081;42.698;23.298;2022-12-18T04:35:41;17.37;;;11.53;;
6095;SDS011;25081;42.698;23.298;2022-12-18T04:37:51;17.50;;;11.55;;
6095;SDS011;25081;42.698;23.298;2022-12-18T04:40:02;16.67;;;11.00;;
6095;SDS011;25081;42.698;23.298;2022-12-18T04:42:13;17.90;;;12.40;;
6095;SDS011;25081;42.698;23.298;2022-12-18T04:44:24;17.17;;;11.40;;
6095;SDS011;25081;42.698;23.298;2022-12-18T04:46:34;13.28;;;7.08;;
6095;SDS011;25081;42.698;23.298;2022-12-18T04:48:46;15.30;;;10.78;;
6095;SDS011;25081;42.698;23.298;2022-12-18T04:50:56;18.45;;;12.03;;
6095;SDS011;25081;42.698;23.298;2022-12-18T04:53:06;21.20;;;13.50;;
6095;SDS011;25081;42.698;23.298;2022-12-18T04:55:17;17.87;;;12.50;;
6095;SDS011;25081;42.698;23.298;2022-12-18T04:57:27;19.57;;;12.80;;
6095;SDS011;25081;42.698;23.298;2022-12-18T04:59:38;20.35;;;12.47;;
6095;SDS011;25081;42.698;23.298;2022-12-18T05:01:48;19.30;;;13.43;;
6095;SDS011;25081;42.698;23.298;2022-12-18T05:03:58;21.33;;;13.60;;
6095;SDS011;25081;42.698;23.298;2022-12-18T05:06:09;22.10;;;13.43;;
6095;SDS011;25081;42.698;23.298;2022-12-18T05:08:19;22.35;;;14.53;;
6095;SDS011;25081;42.698;23.298;2022-12-18T05:10:30;20.85;;;13.32;;
6095;SDS011;25081;42.698;23.298;2022-12-18T05:12:40;22.10;;;13.30;;
6095;SDS011;25081;42.698;23.298;2022-12-18T05:15:07;20.32;;;11.60;;
6095;SDS011;25081;42.698;23.298;2022-12-18T05:17:18;22.15;;;13.80;;
6095;SDS011;25081;42.698;23.298;2022-12-18T05:19:29;19.82;;;12.65;;
6095;SDS011;25081;42.698;23.298;2022-12-18T05:21:39;24.00;;;15.18;;
6095;SDS011;25081;42.698;23.298;2022-12-18T05:23:49;22.07;;;14.43;;
6095;SDS011;25081;42.698;23.298;2022-12-18T05:26:01;24.23;;;14.40;;
6095;SDS011;25081;42.698;23.298;2022-12-18T05:28:10;21.62;;;13.83;;
6095;SDS011;25081;42.698;23.298;2022-12-18T05:30:21;18.05;;;11.78;;
6095;SDS011;25081;42.698;23.298;2022-12-18T05:32:31;20.70;;;13.50;;
6095;SDS011;25081;42.698;23.298;2022-12-18T05:34:42;23.52;;;13.03;;
6095;SDS011;25081;42.698;23.298;2022-12-18T05:36:52;25.70;;;14.73;;
6095;SDS011;25081;42.698;23.298;2022-12-18T05:39:03;22.20;;;13.85;;
6095;SDS011;25081;42.698;23.298;2022-12-18T05:41:13;20.02;;;13.05;;
6095;SDS011;25081;42.698;23.298;2022-12-18T05:43:24;22.58;;;14.15;;
6095;SDS011;25081;42.698;23.298;2022-12-18T05:47:38;23.25;;;14.58;;
6095;SDS011;25081;42.698;23.298;2022-12-18T05:49:49;24.15;;;14.58;;
6095;SDS011;25081;42.698;23.298;2022-12-18T05:51:59;21.02;;;13.60;;
6095;SDS011;25081;42.698;23.298;2022-12-18T05:54:10;24.45;;;15.10;;
6095;SDS011;25081;42.698;23.298;2022-12-18T05:56:21;21.97;;;14.98;;
6095;SDS011;25081;42.698;23.298;2022-12-18T05:58:31;22.87;;;14.78;;
6095;SDS011;25081;42.698;23.298;2022-12-18T06:00:42;24.50;;;15.72;;
6095;SDS011;25081;42.698;23.298;2022-12-18T06:02:51;20.88;;;13.22;;
6095;SDS011;25081;42.698;23.298;2022-12-18T06:05:02;25.68;;;15.75;;
6095;SDS011;25081;42.698;23.298;2022-12-18T06:07:13;26.52;;;15.70;;
6095;SDS011;25081;42.698;23.298;2022-12-18T06:09:24;22.87;;;14.78;;
6095;SDS011;25081;42.698;23.298;2022-12-18T06:11:34;24.72;;;15.88;;
6095;SDS011;25081;42.698;23.298;2022-12-18T06:13:44;25.00;;;15.43;;
6095;SDS011;25081;42.698;23.298;2022-12-18T06:15:55;24.60;;;14.25;;
6095;SDS011;25081;42.698;23.298;2022-12-18T06:18:05;21.12;;;13.58;;
6095;SDS011;25081;42.698;23.298;2022-12-18T06:20:16;22.27;;;14.30;;
6095;SDS011;25081;42.698;23.298;2022-12-18T06:22:26;23.18;;;15.18;;
6095;SDS011;25081;42.698;23.298;2022-12-18T06:24:37;24.20;;;14.83;;
6095;SDS011;25081;42.698;23.298;2022-12-18T06:26:47;22.67;;;14.98;;
6095;SDS011;25081;42.698;23.298;2022-12-18T06:28:57;25.75;;;14.05;;
6095;SDS011;25081;42.698;23.298;2022-12-18T06:31:08;25.12;;;15.10;;
6095;SDS011;25081;42.698;23.298;2022-12-18T06:33:18;24.30;;;15.18;;
6095;SDS011;25081;42.698;23.298;2022-12-18T06:35:29;21.68;;;13.65;;
6095;SDS011;25081;42.698;23.298;2022-12-18T06:37:39;22.50;;;15.63;;
6095;SDS011;25081;42.698;23.298;2022-12-18T06:39:50;23.57;;;14.70;;
6095;SDS011;25081;42.698;23.298;2022-12-18T06:42:00;23.07;;;15.53;;
6095;SDS011;25081;42.698;23.298;2022-12-18T06:44:11;25.30;;;14.93;;
6095;SDS011;25081;42.698;23.298;2022-12-18T06:46:21;21.57;;;13.45;;
6095;SDS011;25081;42.698;23.298;2022-12-18T06:48:31;23.12;;;14.43;;
6095;SDS011;25081;42.698;23.298;2022-12-18T06:50:42;24.67;;;14.50;;
6095;SDS011;25081;42.698;23.298;2022-12-18T06:52:53;23.22;;;14.10;;
6095;SDS011;25081;42.698;23.298;2022-12-18T06:55:04;21.17;;;13.85;;
6095;SDS011;25081;42.698;23.298;2022-12-18T06:57:16;20.05;;;12.82;;
6095;SDS011;25081;42.698;23.298;2022-12-18T06:59:26;20.85;;;13.03;;
6095;SDS011;25081;42.698;23.298;2022-12-18T07:01:37;26.65;;;12.10;;
6095;SDS011;25081;42.698;23.298;2022-12-18T07:03:51;23.15;;;14.73;;
6095;SDS011;25081;42.698;23.298;2022-12-18T07:05:59;23.38;;;13.58;;
6095;SDS011;25081;42.698;23.298;2022-12-18T07:08:10;21.73;;;13.60;;
6095;SDS011;25081;42.698;23.298;2022-12-18T07:10:20;21.93;;;14.10;;
6095;SDS011;25081;42.698;23.298;2022-12-18T07:12:31;20.65;;;12.68;;
6095;SDS011;25081;42.698;23.298;2022-12-18T07:14:41;26.00;;;15.72;;
6095;SDS011;25081;42.698;23.298;2022-12-18T07:16:52;24.95;;;14.30;;
6095;SDS011;25081;42.698;23.298;2022-12-18T07:19:02;25.10;;;15.15;;
6095;SDS011;25081;42.698;23.298;2022-12-18T07:21:13;26.30;;;15.23;;
6095;SDS011;25081;42.698;23.298;2022-12-18T07:23:23;22.07;;;15.43;;
6095;SDS011;25081;42.698;23.298;2022-12-18T07:25:34;24.90;;;14.93;;
6095;SDS011;25081;42.698;23.298;2022-12-18T07:27:44;30.10;;;15.68;;
6095;SDS011;25081;42.698;23.298;2022-12-18T07:29:55;29.30;;;17.77;;
6095;SDS011;25081;42.698;23.298;2022-12-18T07:32:05;45.40;;;28.95;;
6095;SDS011;25081;42.698;23.298;2022-12-18T07:34:16;25.97;;;16.40;;
6095;SDS011;25081;42.698;23.298;2022-12-18T07:36:26;27.98;;;17.07;;
6095;SDS011;25081;42.698;23.298;2022-12-18T07:38:37;31.70;;;17.60;;
6095;SDS011;25081;42.698;23.298;2022-12-18T07:40:47;25.92;;;16.23;;
6095;SDS011;25081;42.698;23.298;2022-12-18T07:42:58;32.75;;;19.55;;
6095;SDS011;25081;42.698;23.298;2022-12-18T07:45:09;30.97;;;18.30;;
6095;SDS011;25081;42.698;23.298;2022-12-18T07:47:19;28.32;;;18.82;;
6095;SDS011;25081;42.698;23.298;2022-12-18T07:49:30;29.95;;;17.02;;
6095;SDS011;25081;42.698;23.298;2022-12-18T07:51:41;26.93;;;17.67;;
6095;SDS011;25081;42.698;23.298;2022-12-18T07:53:51;31.97;;;18.12;;
6095;SDS011;25081;42.698;23.298;2022-12-18T07:56:03;31.48;;;18.65;;
6095;SDS011;25081;42.698;23.298;2022-12-18T07:58:13;31.02;;;18.73;;
6095;SDS011;25081;42.698;23.298;2022-12-18T08:00:24;29.35;;;16.40;;
6095;SDS011;25081;42.698;23.298;2022-12-18T08:02:34;29.77;;;16.82;;
6095;SDS011;25081;42.698;23.298;2022-12-18T08:04:45;26.27;;;17.60;;
6095;SDS011;25081;42.698;23.298;2022-12-18T08:06:55;28.67;;;17.15;;
6095;SDS011;25081;42.698;23.298;2022-12-18T08:09:06;30.92;;;19.23;;
6095;SDS011;25081;42.698;23.298;2022-12-18T08:11:16;28.38;;;17.65;;
6095;SDS011;25081;42.698;23.298;2022-12-18T08:13:27;32.15;;;18.15;;
6095;SDS011;25081;42.698;23.298;2022-12-18T08:15:37;30.15;;;17.82;;
6095;SDS011;25081;42.698;23.298;2022-12-18T08:17:48;30.88;;;18.25;;
6095;SDS011;25081;42.698;23.298;2022-12-18T08:19:58;28.38;;;18.73;;
6095;SDS011;25081;42.698;23.298;2022-12-18T08:22:09;31.02;;;19.12;;
6095;SDS011;25081;42.698;23.298;2022-12-18T08:24:19;30.50;;;17.50;;
6095;SDS011;25081;42.698;23.298;2022-12-18T08:26:30;28.65;;;17.00;;
6095;SDS011;25081;42.698;23.298;2022-12-18T08:28:40;27.25;;;15.90;;
6095;SDS011;25081;42.698;23.298;2022-12-18T08:30:52;25.45;;;16.25;;
6095;SDS011;25081;42.698;23.298;2022-12-18T08:33:02;29.07;;;17.35;;
6095;SDS011;25081;42.698;23.298;2022-12-18T08:35:13;24.55;;;16.82;;
6095;SDS011;25081;42.698;23.298;2022-12-18T08:37:23;30.17;;;17.77;;
6095;SDS011;25081;42.698;23.298;2022-12-18T08:39:34;27.10;;;17.87;;
6095;SDS011;25081;42.698;23.298;2022-12-18T08:41:44;26.50;;;16.60;;
6095;SDS011;25081;42.698;23.298;2022-12-18T08:43:55;33.80;;;17.90;;
6095;SDS011;25081;42.698;23.298;2022-12-18T08:46:23;30.40;;;18.35;;
6095;SDS011;25081;42.698;23.298;2022-12-18T08:48:33;26.05;;;15.93;;
6095;SDS011;25081;42.698;23.298;2022-12-18T08:50:44;30.27;;;18.92;;
6095;SDS011;25081;42.698;23.298;2022-12-18T08:53:03;31.00;;;18.00;;
6095;SDS011;25081;42.698;23.298;2022-12-18T08:55:13;24.63;;;15.50;;
6095;SDS011;25081;42.698;23.298;2022-12-18T08:57:24;25.75;;;15.18;;
6095;SDS011;25081;42.698;23.298;2022-12-18T08:59:34;27.35;;;17.07;;
6095;SDS011;25081;42.698;23.298;2022-12-18T09:01:45;21.15;;;12.05;;
6095;SDS011;25081;42.698;23.298;2022-12-18T09:03:55;24.05;;;16.02;;
6095;SDS011;25081;42.698;23.298;2022-12-18T09:06:06;18.98;;;10.75;;
6095;SDS011;25081;42.698;23.298;2022-12-18T09:08:17;22.80;;;14.53;;
6095;SDS011;25081;42.698;23.298;2022-12-18T09:10:27;33.63;;;18.05;;
6095;SDS011;25081;42.698;23.298;2022-12-18T09:12:38;27.80;;;16.25;;
6095;SDS011;25081;42.698;23.298;2022-12-18T09:14:48;28.35;;;16.57;;
6095;SDS011;25081;42.698;23.298;2022-12-18T09:16:59;26.00;;;15.13;;
6095;SDS011;25081;42.698;23.298;2022-12-18T09:19:09;29.07;;;16.32;;
6095;SDS011;25081;42.698;23.298;2022-12-18T09:21:20;22.55;;;12.90;;
6095;SDS011;25081;42.698;23.298;2022-12-18T09:23:31;24.72;;;14.73;;
6095;SDS011;25081;42.698;23.298;2022-12-18T09:25:41;26.80;;;15.78;;
6095;SDS011;25081;42.698;23.298;2022-12-18T09:27:52;23.73;;;14.55;;
6095;SDS011;25081;42.698;23.298;2022-12-18T09:30:03;25.82;;;15.10;;
6095;SDS011;25081;42.698;23.298;2022-12-18T09:32:15;23.95;;;14.35;;
6095;SDS011;25081;42.698;23.298;2022-12-18T09:34:25;25.02;;;15.45;;
6095;SDS011;25081;42.698;23.298;2022-12-18T09:36:35;28.92;;;17.05;;
6095;SDS011;25081;42.698;23.298;2022-12-18T09:38:46;25.08;;;16.70;;
6095;SDS011;25081;42.698;23.298;2022-12-18T09:40:57;25.25;;;15.63;;
6095;SDS011;25081;42.698;23.298;2022-12-18T09:43:10;23.42;;;13.83;;
6095;SDS011;25081;42.698;23.298;2022-12-18T09:45:20;24.18;;;15.20;;
6095;SDS011;25081;42.698;23.298;2022-12-18T09:47:33;30.97;;;17.05;;
6095;SDS011;25081;42.698;23.298;2022-12-18T09:49:45;27.90;;;16.50;;
6095;SDS011;25081;42.698;23.298;2022-12-18T09:51:55;26.35;;;15.10;;
6095;SDS011;25081;42.698;23.298;2022-12-18T09:54:06;22.82;;;13.35;;
6095;SDS011;25081;42.698;23.298;2022-12-18T09:56:17;22.00;;;13.08;;
6095;SDS011;25081;42.698;23.298;2022-12-18T09:58:28;25.48;;;13.78;;
6095;SDS011;25081;42.698;23.298;2022-12-18T10:00:38;21.10;;;14.30;;
6095;SDS011;25081;42.698;23.298;2022-12-18T10:02:49;21.97;;;14.00;;
6095;SDS011;25081;42.698;23.298;2022-12-18T10:05:11;27.60;;;12.88;;
6095;SDS011;25081;42.698;23.298;2022-12-18T10:07:22;22.50;;;13.72;;
6095;SDS011;25081;42.698;23.298;2022-12-18T10:09:33;25.08;;;15.05;;
6095;SDS011;25081;42.698;23.298;2022-12-18T10:11:43;26.77;;;14.83;;
6095;SDS011;25081;42.698;23.298;2022-12-18T10:13:54;23.62;;;14.28;;
6095;SDS011;25081;42.698;23.298;2022-12-18T10:16:11;23.80;;;14.63;;
6095;SDS011;25081;42.698;23.298;2022-12-18T10:18:24;25.52;;;15.28;;
6095;SDS011;25081;42.698;23.298;2022-12-18T10:20:36;23.67;;;14.85;;
6095;SDS011;25081;42.698;23.298;2022-12-18T10:22:48;26.27;;;16.42;;
6095;SDS011;25081;42.698;23.298;2022-12-18T10:25:01;25.43;;;15.80;;
6095;SDS011;25081;42.698;23.298;2022-12-18T10:27:13;24.63;;;16.25;;
6095;SDS011;25081;42.698;23.298;2022-12-18T10:29:25;25.90;;;14.83;;
6095;SDS011;25081;42.698;23.298;2022-12-18T10:31:34;25.52;;;14.28;;
6095;SDS011;25081;42.698;23.298;2022-12-18T10:33:45;23.27;;;14.75;;
6095;SDS011;25081;42.698;23.298;2022-12-18T10:35:55;25.05;;;14.58;;
6095;SDS011;25081;42.698;23.298;2022-12-18T10:38:07;22.15;;;14.55;;
6095;SDS011;25081;42.698;23.298;2022-12-18T10:40:17;26.62;;;16.52;;
6095;SDS011;25081;42.698;23.298;2022-12-18T10:42:27;26.75;;;14.03;;
6095;SDS011;25081;42.698;23.298;2022-12-18T10:44:38;26.00;;;16.10;;
6095;SDS011;25081;42.698;23.298;2022-12-18T10:46:49;25.80;;;14.83;;
6095;SDS011;25081;42.698;23.298;2022-12-18T10:48:59;26.70;;;17.40;;
6095;SDS011;25081;42.698;23.298;2022-12-18T10:51:09;29.02;;;15.72;;
6095;SDS011;25081;42.698;23.298;2022-12-18T10:53:21;27.25;;;17.17;;
6095;SDS011;25081;42.698;23.298;2022-12-18T10:55:32;24.57;;;15.80;;
6095;SDS011;25081;42.698;23.298;2022-12-18T10:57:41;25.27;;;15.38;;
6095;SDS011;25081;42.698;23.298;2022-12-18T10:59:53;24.02;;;14.85;;
6095;SDS011;25081;42.698;23.298;2022-12-18T11:02:07;27.35;;;15.35;;
6095;SDS011;25081;42.698;23.298;2022-12-18T11:04:18;22.82;;;15.50;;
6095;SDS011;25081;42.698;23.298;2022-12-18T11:06:33;25.50;;;16.45;;
6095;SDS011;25081;42.698;23.298;2022-12-18T11:08:45;23.05;;;14.45;;
6095;SDS011;25081;42.698;23.298;2022-12-18T11:10:54;20.37;;;13.05;;
6095;SDS011;25081;42.698;23.298;2022-12-18T11:13:12;18.70;;;13.85;;
6095;SDS011;25081;42.698;23.298;2022-12-18T11:15:25;22.90;;;13.90;;
6095;SDS011;25081;42.698;23.298;2022-12-18T11:17:35;27.17;;;15.48;;
6095;SDS011;25081;42.698;23.298;2022-12-18T11:19:45;28.95;;;17.12;;
6095;SDS011;25081;42.698;23.298;2022-12-18T11:21:56;23.90;;;16.37;;
6095;SDS011;25081;42.698;23.298;2022-12-18T11:24:08;22.22;;;15.93;;
6095;SDS011;25081;42.698;23.298;2022-12-18T11:26:24;24.52;;;16.12;;
6095;SDS011;25081;42.698;23.298;2022-12-18T11:28:36;29.63;;;18.37;;
6095;SDS011;25081;42.698;23.298;2022-12-18T11:30:46;28.38;;;19.00;;
6095;SDS011;25081;42.698;23.298;2022-12-18T11:32:58;25.43;;;16.35;;
6095;SDS011;25081;42.698;23.298;2022-12-18T11:35:12;23.15;;;14.55;;
6095;SDS011;25081;42.698;23.298;2022-12-18T11:37:23;26.75;;;15.98;;
6095;SDS011;25081;42.698;23.298;2022-12-18T11:39:35;23.57;;;16.60;;
6095;SDS011;25081;42.698;23.298;2022-12-18T11:41:47;23.67;;;14.87;;
6095;SDS011;25081;42.698;23.298;2022-12-18T11:44:14;24.67;;;15.53;;
6095;SDS011;25081;42.698;23.298;2022-12-18T11:46:26;22.82;;;13.60;;
6095;SDS011;25081;42.698;23.298;2022-12-18T11:48:37;22.45;;;14.45;;
6095;SDS011;25081;42.698;23.298;2022-12-18T11:50:48;22.48;;;14.43;;
6095;SDS011;25081;42.698;23.298;2022-12-18T11:52:58;31.17;;;18.42;;
6095;SDS011;25081;42.698;23.298;2022-12-18T11:55:12;29.45;;;17.65;;
6095;SDS011;25081;42.698;23.298;2022-12-18T11:57:25;25.50;;;16.50;;
6095;SDS011;25081;42.698;23.298;2022-12-18T11:59:38;26.90;;;17.02;;
6095;SDS011;25081;42.698;23.298;2022-12-18T12:01:50;27.93;;;16.82;;
6095;SDS011;25081;42.698;23.298;2022-12-18T12:09:37;41.42;;;24.85;;
6095;SDS011;25081;42.698;23.298;2022-12-18T12:11:48;25.75;;;17.80;;
6095;SDS011;25081;42.698;23.298;2022-12-18T12:14:03;26.45;;;17.60;;
6095;SDS011;25081;42.698;23.298;2022-12-18T12:16:16;25.70;;;16.27;;
6095;SDS011;25081;42.698;23.298;2022-12-18T12:18:29;32.70;;;17.27;;
6095;SDS011;25081;42.698;23.298;2022-12-18T12:20:42;24.27;;;16.02;;
6095;SDS011;25081;42.698;23.298;2022-12-18T12:22:54;25.00;;;16.17;;
6095;SDS011;25081;42.698;23.298;2022-12-18T12:25:10;24.75;;;16.25;;
6095;SDS011;25081;42.698;23.298;2022-12-18T12:27:26;23.42;;;15.20;;
6095;SDS011;25081;42.698;23.298;2022-12-18T12:29:39;25.30;;;15.60;;
6095;SDS011;25081;42.698;23.298;2022-12-18T12:31:55;30.50;;;15.60;;
6095;SDS011;25081;42.698;23.298;2022-12-18T12:34:10;25.50;;;14.70;;
6095;SDS011;25081;42.698;23.298;2022-12-18T12:36:21;23.90;;;14.58;;
6095;SDS011;25081;42.698;23.298;2022-12-18T12:38:33;28.23;;;16.10;;
6095;SDS011;25081;42.698;23.298;2022-12-18T12:40:43;26.37;;;15.98;;
6095;SDS011;25081;42.698;23.298;2022-12-18T12:42:54;27.13;;;15.23;;
6095;SDS011;25081;42.698;23.298;2022-12-18T12:45:22;24.25;;;15.40;;
6095;SDS011;25081;42.698;23.298;2022-12-18T12:47:33;29.40;;;17.55;;
6095;SDS011;25081;42.698;23.298;2022-12-18T12:49:43;29.77;;;19.23;;
6095;SDS011;25081;42.698;23.298;2022-12-18T12:51:56;25.68;;;16.40;;
6095;SDS011;25081;42.698;23.298;2022-12-18T12:54:05;28.85;;;17.42;;
6095;SDS011;25081;42.698;23.298;2022-12-18T12:56:16;27.73;;;16.30;;
6095;SDS011;25081;42.698;23.298;2022-12-18T12:58:28;27.37;;;15.83;;
6095;SDS011;25081;42.698;23.298;2022-12-18T13:00:41;27.20;;;16.27;;
6095;SDS011;25081;42.698;23.298;2022-12-18T13:02:52;25.97;;;14.63;;